createdAt,value
2018-04-07T00:02:20.540Z,7.70
2018-04-07T00:04:48.834Z,5.90
2018-04-07T00:07:17.947Z,5.47
2018-04-07T00:09:46.297Z,7.17
2018-04-07T00:12:14.555Z,4.87
2018-04-07T00:14:42.912Z,6.43
2018-04-07T00:17:11.367Z,7.70
2018-04-07T00:19:39.662Z,5.80
2018-04-07T00:22:07.971Z,6.33
2018-04-07T00:24:36.279Z,4.97
2018-04-07T00:27:05.446Z,5.73
2018-04-07T00:29:33.739Z,5.50
2018-04-07T00:32:02.056Z,6.43
2018-04-07T00:34:30.378Z,5.63
2018-04-07T00:36:58.702Z,4.90
2018-04-07T00:39:27.017Z,6.20
2018-04-07T00:41:55.327Z,4.73
2018-04-07T00:44:24.398Z,7.13
2018-04-07T00:46:53.474Z,5.20
2018-04-07T00:49:21.793Z,6.67
2018-04-07T00:51:50.867Z,6.27
2018-04-07T00:54:19.194Z,8.33
2018-04-07T00:56:47.499Z,7.23
2018-04-07T00:59:16.597Z,7.10
2018-04-07T01:01:44.919Z,6.57
2018-04-07T01:04:14.027Z,7.20
2018-04-07T01:06:42.320Z,6.23
2018-04-07T01:09:10.627Z,7.87
2018-04-07T01:11:39.744Z,7.27
2018-04-07T01:14:08.806Z,6.73
2018-04-07T01:16:37.164Z,5.30
2018-04-07T01:19:05.465Z,6.43
2018-04-07T01:21:33.768Z,5.80
2018-04-07T01:24:02.976Z,6.33
2018-04-07T01:26:31.303Z,7.23
2018-04-07T01:28:59.602Z,6.37
2018-04-07T01:31:27.905Z,7.70
2018-04-07T01:33:56.204Z,6.80
2018-04-07T01:36:24.528Z,6.90
2018-04-07T01:38:52.826Z,5.63
2018-04-07T01:41:21.909Z,7.60
2018-04-07T01:43:50.992Z,6.60
2018-04-07T01:46:19.301Z,7.20
2018-04-07T01:48:47.685Z,7.63
2018-04-07T01:51:16.000Z,7.30
2018-04-07T01:53:44.318Z,6.53
2018-04-07T01:56:12.618Z,7.70
2018-04-07T01:58:40.962Z,8.67
2018-04-07T02:01:09.273Z,6.40
2018-04-07T02:03:37.610Z,9.47
2018-04-07T02:06:05.909Z,5.87
2018-04-07T02:08:34.230Z,6.50
2018-04-07T02:11:02.534Z,12.33
2018-04-07T02:13:30.959Z,9.00
2018-04-07T02:15:59.294Z,6.07
2018-04-07T02:18:28.448Z,9.83
2018-04-07T02:20:57.686Z,6.00
2018-04-07T02:23:26.276Z,7.40
2018-04-07T02:25:55.359Z,6.47
2018-04-07T02:28:23.692Z,7.23
2018-04-07T02:30:51.995Z,5.83
2018-04-07T02:33:20.323Z,6.77
2018-04-07T02:35:48.631Z,9.53
2018-04-07T02:38:17.028Z,5.93
2018-04-07T02:40:45.392Z,7.23
2018-04-07T02:43:14.832Z,5.13
2018-04-07T02:45:43.910Z,6.03
2018-04-07T02:48:12.296Z,7.80
2018-04-07T02:50:40.595Z,14.00
2018-04-07T02:53:08.920Z,7.60
2018-04-07T02:55:37.225Z,6.73
2018-04-07T02:58:05.530Z,10.50
2018-04-07T03:00:33.858Z,8.67
2018-04-07T03:03:02.152Z,7.03
2018-04-07T03:05:31.332Z,7.80
2018-04-07T03:07:59.654Z,8.33
2018-04-07T03:10:27.976Z,9.87
2018-04-07T03:12:57.121Z,7.70
2018-04-07T03:15:26.190Z,7.37
2018-04-07T03:17:55.439Z,7.70
2018-04-07T03:20:23.728Z,8.53
2018-04-07T03:22:52.094Z,7.13
2018-04-07T03:25:20.412Z,6.47
2018-04-07T03:27:49.764Z,6.63
2018-04-07T03:30:18.044Z,7.47
2018-04-07T03:32:46.359Z,7.10
2018-04-07T03:35:15.465Z,8.30
2018-04-07T03:37:43.802Z,9.47
2018-04-07T03:40:12.115Z,7.13
2018-04-07T03:42:40.432Z,9.17
2018-04-07T03:45:08.718Z,7.47
2018-04-07T03:47:37.033Z,11.40
2018-04-07T03:50:05.348Z,10.27
2018-04-07T03:52:33.648Z,10.73
2018-04-07T03:55:01.965Z,8.73
2018-04-07T03:57:30.250Z,8.20
2018-04-07T03:59:59.342Z,9.43
2018-04-07T04:02:27.629Z,8.07
2018-04-07T04:04:55.940Z,9.83
2018-04-07T04:07:24.225Z,9.00
2018-04-07T04:09:52.525Z,8.20
2018-04-07T04:12:20.804Z,6.83
2018-04-07T04:14:49.106Z,8.57
2018-04-07T04:17:17.453Z,10.90
2018-04-07T04:19:45.785Z,7.97
2018-04-07T04:22:14.080Z,8.10
2018-04-07T04:24:42.375Z,8.13
2018-04-07T04:27:10.697Z,9.13
2018-04-07T04:29:39.812Z,9.03
2018-04-07T04:32:08.215Z,8.80
2018-04-07T04:34:36.500Z,9.10
2018-04-07T04:37:05.326Z,10.17
2018-04-07T04:39:33.651Z,8.97
2018-04-07T04:42:01.929Z,8.87
2018-04-07T04:44:31.078Z,8.30
2018-04-07T04:47:00.163Z,11.53
2018-04-07T04:49:28.480Z,9.13
2018-04-07T04:51:57.436Z,11.17
2018-04-07T04:54:26.507Z,10.27
2018-04-07T04:56:54.828Z,6.83
2018-04-07T04:59:23.881Z,8.33
2018-04-07T05:01:52.938Z,7.93
2018-04-07T05:04:21.239Z,8.53
2018-04-07T05:06:50.506Z,9.60
2018-04-07T05:09:18.805Z,10.87
2018-04-07T05:11:47.126Z,8.97
2018-04-07T05:14:16.226Z,12.97
2018-04-07T05:16:45.334Z,8.20
2018-04-07T05:19:13.630Z,9.33
2018-04-07T05:21:41.955Z,9.70
2018-04-07T05:24:11.106Z,8.23
2018-04-07T05:26:39.428Z,7.83
2018-04-07T05:29:07.728Z,12.27
2018-04-07T05:31:36.781Z,10.97
2018-04-07T05:34:05.103Z,8.47
2018-04-07T05:36:33.448Z,9.57
2018-04-07T05:39:01.745Z,11.00
2018-04-07T05:41:30.063Z,10.87
2018-04-07T05:43:58.387Z,8.13
2018-04-07T05:46:27.458Z,8.83
2018-04-07T05:48:55.818Z,10.33
2018-04-07T05:51:24.136Z,8.23
2018-04-07T05:53:53.205Z,10.70
2018-04-07T05:56:21.583Z,10.37
2018-04-07T05:58:50.703Z,10.50
2018-04-07T06:01:19.812Z,9.60
2018-04-07T06:03:48.163Z,12.57
2018-04-07T06:06:16.537Z,9.83
2018-04-07T06:08:44.886Z,8.07
2018-04-07T06:11:13.196Z,9.93
2018-04-07T06:13:41.498Z,8.43
2018-04-07T06:16:09.864Z,8.37
2018-04-07T06:18:38.961Z,9.07
2018-04-07T06:21:08.062Z,12.27
2018-04-07T06:23:37.151Z,10.30
2018-04-07T06:26:06.319Z,10.97
2018-04-07T06:28:34.945Z,9.40
2018-04-07T06:31:03.296Z,10.37
2018-04-07T06:33:31.639Z,10.60
2018-04-07T06:36:00.013Z,9.23
2018-04-07T06:38:29.135Z,15.37
2018-04-07T06:40:58.247Z,9.57
2018-04-07T06:43:27.328Z,12.17
2018-04-07T06:45:55.656Z,11.20
2018-04-07T06:48:24.018Z,15.83
2018-04-07T06:50:52.332Z,12.07
2018-04-07T06:53:20.696Z,10.47
2018-04-07T06:55:49.030Z,10.73
2018-04-07T06:58:17.374Z,11.03
2018-04-07T07:00:45.694Z,11.73
2018-04-07T07:03:14.046Z,10.07
2018-04-07T07:05:42.357Z,12.37
2018-04-07T07:08:10.683Z,8.80
2018-04-07T07:10:38.996Z,10.77
2018-04-07T07:13:07.321Z,10.77
2018-04-07T07:15:35.648Z,11.47
2018-04-07T07:18:03.976Z,9.93
2018-04-07T07:20:32.278Z,12.30
2018-04-07T07:23:01.390Z,12.47
2018-04-07T07:25:30.444Z,12.83
2018-04-07T07:27:58.777Z,10.83
2018-04-07T07:30:27.124Z,10.97
2018-04-07T07:32:56.218Z,12.03
2018-04-07T07:35:24.541Z,12.50
2018-04-07T07:37:52.851Z,9.97
2018-04-07T07:40:23.448Z,10.60
2018-04-07T07:42:52.998Z,10.17
2018-04-07T07:45:21.287Z,13.27
2018-04-07T07:47:50.393Z,14.63
2018-04-07T07:50:19.567Z,11.60
2018-04-07T07:52:47.848Z,20.00
2018-04-07T07:55:16.950Z,11.03
2018-04-07T07:57:45.268Z,10.17
2018-04-07T08:00:13.634Z,13.73
2018-04-07T08:02:41.936Z,11.10
2018-04-07T08:05:10.260Z,11.53
2018-04-07T08:07:39.322Z,12.17
2018-04-07T08:10:07.790Z,10.33
2018-04-07T08:12:36.083Z,9.67
2018-04-07T08:15:05.355Z,12.27
2018-04-07T08:17:33.770Z,13.03
2018-04-07T08:20:02.075Z,9.87
2018-04-07T08:22:30.491Z,13.17
2018-04-07T08:25:01.326Z,11.87
2018-04-07T08:27:29.617Z,13.53
2018-04-07T08:29:57.939Z,10.17
2018-04-07T08:32:26.312Z,11.63
2018-04-07T08:34:55.022Z,17.33
2018-04-07T08:37:23.326Z,11.23
2018-04-07T08:39:51.640Z,13.97
2018-04-07T08:42:20.719Z,12.20
2018-04-07T08:44:49.904Z,9.40
2018-04-07T08:47:18.220Z,10.70
2018-04-07T08:49:46.536Z,11.70
2018-04-07T08:52:14.859Z,11.33
2018-04-07T08:54:43.982Z,11.90
2018-04-07T08:57:12.323Z,10.83
2018-04-07T08:59:40.615Z,10.63
2018-04-07T09:02:08.988Z,13.27
2018-04-07T09:04:38.062Z,13.37
2018-04-07T09:07:06.366Z,12.20
2018-04-07T09:09:34.717Z,13.83
2018-04-07T09:12:03.029Z,12.47
2018-04-07T09:14:31.318Z,12.50
2018-04-07T09:16:59.665Z,16.60
2018-04-07T09:19:28.819Z,15.37
2018-04-07T09:21:57.056Z,17.17
2018-04-07T09:24:25.391Z,14.03
2018-04-07T09:26:53.710Z,14.00
2018-04-07T09:29:22.040Z,12.23
2018-04-07T09:31:50.358Z,12.90
2018-04-07T09:34:18.695Z,13.47
2018-04-07T09:36:47.071Z,11.57
2018-04-07T09:39:15.377Z,14.93
2018-04-07T09:41:44.546Z,16.40
2018-04-07T09:44:12.888Z,12.97
2018-04-07T09:46:41.246Z,13.37
2018-04-07T09:49:09.574Z,13.47
2018-04-07T09:51:37.863Z,16.17
2018-04-07T09:54:06.178Z,12.77
2018-04-07T09:56:34.481Z,14.60
2018-04-07T09:59:02.801Z,13.47
2018-04-07T10:01:31.858Z,15.00
2018-04-07T10:04:00.171Z,15.97
2018-04-07T10:06:28.526Z,13.50
2018-04-07T10:08:57.607Z,14.50
2018-04-07T10:11:31.508Z,14.73
2018-04-07T10:13:59.813Z,15.30
2018-04-07T10:16:28.984Z,14.53
2018-04-07T10:18:57.384Z,14.50
2018-04-07T10:21:25.683Z,13.53
2018-04-07T10:23:54.034Z,14.73
2018-04-07T10:26:22.335Z,14.67
2018-04-07T10:28:50.647Z,13.50
2018-04-07T10:31:18.965Z,15.90
2018-04-07T10:33:48.914Z,15.33
2018-04-07T10:36:18.297Z,12.83
2018-04-07T10:38:47.360Z,15.53
2018-04-07T10:41:16.498Z,17.30
2018-04-07T10:43:45.833Z,17.77
2018-04-07T10:46:14.159Z,13.60
2018-04-07T10:48:43.225Z,15.33
2018-04-07T10:51:11.569Z,15.40
2018-04-07T10:53:39.951Z,13.33
2018-04-07T10:56:08.274Z,14.87
2018-04-07T10:58:37.369Z,16.37
2018-04-07T11:01:05.704Z,16.63
2018-04-07T11:03:34.220Z,16.13
2018-04-07T11:06:03.377Z,15.17
2018-04-07T11:08:32.406Z,15.40
2018-04-07T11:11:00.697Z,16.97
2018-04-07T11:13:29.906Z,15.20
2018-04-07T11:15:58.217Z,15.50
2018-04-07T11:18:26.555Z,15.13
2018-04-07T11:20:55.642Z,14.77
2018-04-07T11:23:25.087Z,14.43
2018-04-07T11:25:53.382Z,13.80
2018-04-07T11:28:21.691Z,16.57
2018-04-07T11:30:50.005Z,12.70
2018-04-07T11:33:18.422Z,15.53
2018-04-07T11:35:46.731Z,13.67
2018-04-07T11:38:15.818Z,15.93
2018-04-07T11:40:44.175Z,18.20
2018-04-07T11:43:12.487Z,15.93
2018-04-07T11:45:40.782Z,14.33
2018-04-07T11:48:09.105Z,14.03
2018-04-07T11:50:38.198Z,12.63
2018-04-07T11:53:06.516Z,13.77
2018-04-07T11:55:35.790Z,20.37
2018-04-07T11:58:04.872Z,13.10
2018-04-07T12:00:33.403Z,14.43
2018-04-07T12:03:01.674Z,15.53
2018-04-07T12:18:30.021Z,13.05
2018-04-07T12:20:59.107Z,12.20
2018-04-07T12:23:28.168Z,13.07
2018-04-07T12:25:56.560Z,13.77
2018-04-07T12:28:24.869Z,13.13
2018-04-07T12:30:53.192Z,13.03
2018-04-07T12:33:21.489Z,12.37
2018-04-07T12:35:49.970Z,13.63
2018-04-07T12:38:18.256Z,13.10
2018-04-07T12:40:47.514Z,13.83
2018-04-07T12:43:15.852Z,11.77
2018-04-07T12:45:44.136Z,13.93
2018-04-07T12:48:12.585Z,10.17
2018-04-07T12:50:40.849Z,9.77
2018-04-07T12:53:09.169Z,11.00
2018-04-07T12:55:37.492Z,10.40
2018-04-07T12:58:05.804Z,9.90
2018-04-07T13:00:34.137Z,12.33
2018-04-07T13:03:02.458Z,12.70
2018-04-07T13:05:30.740Z,11.00
2018-04-07T13:08:00.376Z,10.20
2018-04-07T13:10:28.672Z,8.70
2018-04-07T13:12:57.823Z,10.83
2018-04-07T13:15:26.114Z,13.10
2018-04-07T13:17:55.057Z,13.23
2018-04-07T13:20:24.113Z,8.13
2018-04-07T13:22:52.453Z,10.47
2018-04-07T13:25:20.774Z,8.67
2018-04-07T13:27:49.076Z,8.53
2018-04-07T13:30:18.166Z,8.73
2018-04-07T13:32:46.472Z,10.83
2018-04-07T13:35:14.817Z,9.00
2018-04-07T13:37:43.114Z,10.00
2018-04-07T13:40:12.280Z,7.80
2018-04-07T13:42:41.413Z,9.60
2018-04-07T13:45:09.765Z,10.37
2018-04-07T13:47:38.829Z,9.40
2018-04-07T13:50:07.961Z,7.63
2018-04-07T13:52:37.023Z,9.60
2018-04-07T13:55:05.346Z,9.33
2018-04-07T13:57:34.546Z,10.53
2018-04-07T14:00:03.631Z,8.40
2018-04-07T14:02:32.685Z,11.50
2018-04-07T14:05:01.324Z,9.67
2018-04-07T14:07:29.718Z,10.60
2018-04-07T14:09:58.670Z,8.80
2018-04-07T14:12:26.956Z,9.17
2018-04-07T14:14:56.070Z,7.13
2018-04-07T14:17:24.407Z,9.17
2018-04-07T14:19:53.602Z,10.20
2018-04-07T14:22:21.885Z,8.50
2018-04-07T14:24:50.989Z,11.07
2018-04-07T14:27:20.066Z,10.60
2018-04-07T14:29:48.382Z,7.97
2018-04-07T14:45:16.727Z,11.00
2018-04-07T14:47:45.042Z,9.97
2018-04-07T14:50:13.459Z,8.60
2018-04-07T14:52:41.753Z,8.13
2018-04-07T14:55:10.839Z,12.43
2018-04-07T14:57:39.149Z,10.43
2018-04-07T15:00:08.396Z,10.97
2018-04-07T15:02:37.398Z,9.70
2018-04-07T15:05:06.141Z,13.27
2018-04-07T15:07:34.447Z,7.87
2018-04-07T15:10:02.715Z,15.57
2018-04-07T16:10:33.696Z,10.57
2018-04-07T16:13:02.011Z,17.33
2018-04-07T16:15:30.328Z,8.43
2018-04-07T16:17:58.665Z,15.90
2018-04-07T16:20:27.765Z,11.97
2018-04-07T16:22:56.384Z,12.37
2018-04-07T16:25:24.682Z,6.53
2018-04-07T16:27:53.112Z,19.23
2018-04-07T16:30:22.326Z,9.03
2018-04-07T16:32:51.111Z,10.70
2018-04-07T16:35:20.185Z,8.50
2018-04-07T16:37:49.258Z,13.77
2018-04-07T16:40:18.471Z,9.40
2018-04-07T16:42:46.993Z,8.47
2018-04-07T16:45:15.351Z,10.10
2018-04-07T16:47:44.439Z,9.83
2018-04-07T16:50:13.926Z,5.67
2018-04-07T16:52:42.229Z,8.50
2018-04-07T16:55:11.403Z,7.40
2018-04-07T16:57:39.684Z,7.10
2018-04-07T17:00:08.750Z,6.57
2018-04-07T17:02:38.000Z,5.20
2018-04-07T17:05:06.302Z,7.03
2018-04-07T17:07:34.624Z,8.50
2018-04-07T17:10:02.944Z,7.83
2018-04-07T17:12:31.258Z,7.17
2018-04-07T17:15:00.367Z,10.63
2018-04-07T17:17:29.482Z,7.57
2018-04-07T17:19:57.836Z,5.70
2018-04-07T17:22:26.128Z,8.47
2018-04-07T17:24:54.453Z,6.67
2018-04-07T17:27:22.774Z,10.63
2018-04-07T17:29:51.893Z,6.97
2018-04-07T17:32:20.215Z,9.27
2018-04-07T17:34:48.491Z,9.53
2018-04-07T17:37:16.841Z,8.27
2018-04-07T17:39:45.129Z,8.53
2018-04-07T17:42:13.474Z,9.03
2018-04-07T17:44:41.783Z,9.60
2018-04-07T17:47:10.174Z,6.03
2018-04-07T17:49:43.733Z,10.07
2018-04-07T17:52:06.784Z,8.80
2018-04-07T17:54:35.154Z,10.27
2018-04-07T17:57:03.465Z,9.93
2018-04-07T17:59:31.823Z,6.33
2018-04-07T18:02:00.122Z,7.17
2018-04-07T18:04:28.458Z,5.53
2018-04-07T18:06:56.869Z,8.27
2018-04-07T18:09:25.177Z,7.40
2018-04-07T18:11:53.470Z,9.17
2018-04-07T18:14:22.860Z,6.43
2018-04-07T18:16:52.018Z,10.37
2018-04-07T18:19:20.412Z,8.63
2018-04-07T18:21:48.683Z,11.40
2018-04-07T18:24:17.087Z,7.10
2018-04-07T18:26:45.413Z,7.40
2018-04-07T18:29:13.721Z,11.73
2018-04-07T18:31:42.164Z,6.83
2018-04-07T18:34:10.475Z,8.60
2018-04-07T18:36:38.803Z,8.17
2018-04-07T18:39:07.884Z,8.20
2018-04-07T18:41:38.446Z,10.33
2018-04-07T18:44:06.723Z,10.87
2018-04-07T18:46:35.046Z,6.87
2018-04-07T18:49:03.460Z,9.87
2018-04-07T18:51:31.781Z,10.33
2018-04-07T18:54:00.110Z,14.60
2018-04-07T18:56:29.215Z,10.57
2018-04-07T18:58:57.513Z,12.57
2018-04-07T19:01:25.853Z,9.33
2018-04-07T19:03:55.033Z,7.30
2018-04-07T19:06:23.359Z,9.97
2018-04-07T19:08:51.695Z,10.00
2018-04-07T19:11:20.796Z,7.07
2018-04-07T19:13:49.875Z,8.10
2018-04-07T19:16:18.959Z,7.43
2018-04-07T19:18:48.032Z,9.93
2018-04-07T19:21:16.397Z,10.93
2018-04-07T19:23:44.682Z,10.30
2018-04-07T19:26:13.054Z,9.57
2018-04-07T19:28:41.350Z,7.97
2018-04-07T19:31:09.694Z,9.10
2018-04-07T19:33:38.036Z,8.70
2018-04-07T19:36:07.130Z,10.00
2018-04-07T19:38:36.234Z,11.93
2018-04-07T19:41:05.282Z,10.90
2018-04-07T19:43:33.623Z,9.63
2018-04-07T19:46:01.959Z,11.37
2018-04-07T19:48:30.310Z,10.27
2018-04-07T19:50:59.405Z,9.87
2018-04-07T19:53:27.765Z,10.60
2018-04-07T19:55:56.144Z,14.83
2018-04-07T19:58:24.485Z,15.10
2018-04-07T20:00:52.807Z,10.73
2018-04-07T20:03:21.159Z,12.87
2018-04-07T20:05:49.487Z,13.30
2018-04-07T20:08:18.596Z,12.97
2018-04-07T20:10:47.698Z,13.33
2018-04-07T20:13:16.098Z,11.43
2018-04-07T20:15:45.141Z,16.13
2018-04-07T20:18:13.485Z,12.70
2018-04-07T20:20:41.908Z,11.77
2018-04-07T20:23:11.094Z,14.53
2018-04-07T20:25:40.198Z,11.73
2018-04-07T20:28:09.273Z,13.33
2018-04-07T20:30:37.667Z,11.83
2018-04-07T20:33:06.808Z,15.67
2018-04-07T20:35:35.164Z,11.13
2018-04-07T20:38:04.282Z,12.40
2018-04-07T20:40:32.874Z,11.97
2018-04-07T20:43:01.147Z,17.20
2018-04-07T20:45:29.481Z,16.80
2018-04-07T20:47:57.829Z,14.10
2018-04-07T20:50:26.941Z,12.17
2018-04-07T20:52:55.253Z,12.20
2018-04-07T20:55:23.585Z,15.50
2018-04-07T20:57:51.955Z,13.03
2018-04-07T21:00:20.308Z,13.83
2018-04-07T21:02:48.611Z,19.03
2018-04-07T21:05:16.939Z,10.93
2018-04-07T21:07:45.257Z,15.37
2018-04-07T21:10:14.369Z,16.10
2018-04-07T21:12:42.721Z,12.53
2018-04-07T21:15:11.857Z,17.13
2018-04-07T21:17:40.940Z,12.00
2018-04-07T21:20:09.221Z,15.10
2018-04-07T21:22:38.324Z,16.70
2018-04-07T21:25:07.410Z,13.27
2018-04-07T21:27:36.512Z,12.00
2018-04-07T21:30:04.854Z,16.00
2018-04-07T21:32:33.250Z,13.57
2018-04-07T21:35:01.555Z,14.87
2018-04-07T21:37:29.915Z,12.93
2018-04-07T21:39:59.064Z,14.40
2018-04-07T21:42:27.401Z,12.50
2018-04-07T21:44:55.741Z,12.10
2018-04-07T21:47:24.057Z,9.50
2018-04-07T21:49:52.354Z,17.00
2018-04-07T21:52:20.731Z,13.77
2018-04-07T21:54:49.074Z,12.80
2018-04-07T21:57:17.479Z,12.73
2018-04-07T21:59:45.877Z,11.57
2018-04-07T22:02:14.179Z,13.30
2018-04-07T22:04:42.484Z,13.00
2018-04-07T22:07:11.557Z,13.03
2018-04-07T22:09:39.895Z,15.33
2018-04-07T22:12:08.198Z,16.47
2018-04-07T22:14:36.535Z,15.40
2018-04-07T22:17:04.856Z,14.80
2018-04-07T22:19:33.995Z,15.47
2018-04-07T22:22:02.450Z,13.90
2018-04-07T22:24:31.560Z,13.83
2018-04-07T22:27:00.614Z,15.70
2018-04-07T22:29:28.930Z,15.63
2018-04-07T22:31:57.266Z,15.87
2018-04-07T22:34:25.604Z,15.07
2018-04-07T22:36:53.894Z,14.90
2018-04-07T22:39:22.684Z,16.60
2018-04-07T22:41:50.998Z,14.80
2018-04-07T22:44:19.311Z,14.93
2018-04-07T22:46:47.638Z,12.73
2018-04-07T22:49:15.943Z,13.80
2018-04-07T22:51:45.019Z,16.77
2018-04-07T22:54:14.083Z,16.87
2018-04-07T22:56:42.452Z,14.10
2018-04-07T22:59:10.811Z,11.60
2018-04-07T23:01:39.137Z,13.93
2018-04-07T23:04:09.045Z,16.07
2018-04-07T23:06:38.979Z,17.10
2018-04-07T23:09:08.036Z,16.07
2018-04-07T23:11:36.350Z,15.63
2018-04-07T23:14:04.647Z,16.07
2018-04-07T23:16:32.980Z,14.83
2018-04-07T23:19:01.312Z,12.33
2018-04-07T23:21:29.635Z,15.77
2018-04-07T23:23:57.925Z,14.30
2018-04-07T23:26:26.230Z,20.20
2018-04-07T23:28:54.532Z,15.63
2018-04-07T23:31:22.852Z,16.53
2018-04-07T23:33:51.960Z,17.73
2018-04-07T23:36:21.028Z,12.37
2018-04-07T23:38:49.355Z,13.77
2018-04-07T23:41:18.012Z,15.67
2018-04-07T23:43:47.082Z,19.07
2018-04-07T23:59:16.747Z,11.63
